sensor_id;sensor_type;location;lat;lon;timestamp;pressure;altitude;pressure_sealevel;temperature;humidity
63190;BME280;49286;44.460;26.114;2023-01-26T00:00:51;101636.00;;;-1.10;100.00
63190;BME280;49286;44.460;26.114;2023-01-26T00:03:17;101662.00;;;-0.80;100.00
63190;BME280;49286;44.460;26.114;2023-01-26T00:05:44;101652.59;;;-0.80;100.00
63190;BME280;49286;44.460;26.114;2023-01-26T00:08:10;101640.00;;;-0.75;100.00
63190;BME280;49286;44.460;26.114;2023-01-26T00:10:38;101511.41;;;-1.77;100.00
63190;BME280;49286;44.460;26.114;2023-01-26T00:13:04;101517.19;;;-1.68;100.00
63190;BME280;49286;44.460;26.114;2023-01-26T00:15:34;101505.31;;;-1.66;100.00
63190;BME280;49286;44.460;26.114;2023-01-26T00:18:00;101502.56;;;-1.29;100.00
63190;BME280;49286;44.460;26.114;2023-01-26T00:20:26;101618.88;;;-0.96;100.00
63190;BME280;49286;44.460;26.114;2023-01-26T00:22:52;101514.22;;;-1.61;100.00
63190;BME280;49286;44.460;26.114;2023-01-26T00:25:17;101622.47;;;-0.94;100.00
63190;BME280;49286;44.460;26.114;2023-01-26T00:27:43;101538.16;;;-1.62;100.00
63190;BME280;49286;44.460;26.114;2023-01-26T00:30:09;101665.06;;;-0.99;100.00
63190;BME280;49286;44.460;26.114;2023-01-26T00:32:35;101642.19;;;-0.95;100.00
63190;BME280;49286;44.460;26.114;2023-01-26T00:35:01;101547.09;;;-1.43;100.00
63190;BME280;49286;44.460;26.114;2023-01-26T00:37:26;101520.75;;;-1.66;100.00
63190;BME280;49286;44.460;26.114;2023-01-26T00:39:52;101534.47;;;-1.40;100.00
63190;BME280;49286;44.460;26.114;2023-01-26T00:42:17;101629.38;;;-1.07;100.00
63190;BME280;49286;44.460;26.114;2023-01-26T00:44:43;101624.34;;;-1.05;100.00
63190;BME280;49286;44.460;26.114;2023-01-26T00:47:11;101625.75;;;-0.83;100.00
63190;BME280;49286;44.460;26.114;2023-01-26T00:49:36;101514.91;;;-1.50;100.00
63190;BME280;49286;44.460;26.114;2023-01-26T00:52:02;101661.44;;;-0.76;100.00
63190;BME280;49286;44.460;26.114;2023-01-26T00:54:28;101653.72;;;-0.63;100.00
63190;BME280;49286;44.460;26.114;2023-01-26T00:56:54;101643.88;;;-0.69;100.00
63190;BME280;49286;44.460;26.114;2023-01-26T00:59:20;101608.34;;;-1.13;100.00
63190;BME280;49286;44.460;26.114;2023-01-26T01:01:46;101485.69;;;-1.77;100.00
63190;BME280;49286;44.460;26.114;2023-01-26T01:04:12;101514.31;;;-1.59;100.00
63190;BME280;49286;44.460;26.114;2023-01-26T01:06:37;101630.28;;;-0.93;100.00
63190;BME280;49286;44.460;26.114;2023-01-26T01:09:03;101464.19;;;-1.91;100.00
63190;BME280;49286;44.460;26.114;2023-01-26T01:11:28;101628.91;;;-0.88;100.00
63190;BME280;49286;44.460;26.114;2023-01-26T01:13:54;101524.44;;;-1.49;100.00
63190;BME280;49286;44.460;26.114;2023-01-26T01:16:19;101568.81;;;-1.27;100.00
63190;BME280;49286;44.460;26.114;2023-01-26T01:18:45;101626.03;;;-0.92;100.00
63190;BME280;49286;44.460;26.114;2023-01-26T01:21:15;101587.88;;;-1.11;100.00
63190;BME280;49286;44.460;26.114;2023-01-26T01:23:42;101494.34;;;-1.63;100.00
63190;BME280;49286;44.460;26.114;2023-01-26T01:26:08;101521.31;;;-1.18;100.00
63190;BME280;49286;44.460;26.114;2023-01-26T01:28:35;101556.28;;;-0.95;100.00
63190;BME280;49286;44.460;26.114;2023-01-26T01:31:07;101516.94;;;-1.06;100.00
63190;BME280;49286;44.460;26.114;2023-01-26T01:33:33;101610.38;;;-0.42;100.00
63190;BME280;49286;44.460;26.114;2023-01-26T01:36:01;101607.75;;;-0.29;100.00
63190;BME280;49286;44.460;26.114;2023-01-26T01:38:27;101497.72;;;-1.11;100.00
63190;BME280;49286;44.460;26.114;2023-01-26T01:40:54;101613.94;;;-0.93;100.00
63190;BME280;49286;44.460;26.114;2023-01-26T01:43:20;101617.91;;;-0.98;100.00
63190;BME280;49286;44.460;26.114;2023-01-26T01:45:47;101475.31;;;-1.65;100.00
63190;BME280;49286;44.460;26.114;2023-01-26T01:50:44;101584.72;;;-1.07;100.00
63190;BME280;49286;44.460;26.114;2023-01-26T01:53:17;101599.78;;;-0.87;100.00
63190;BME280;49286;44.460;26.114;2023-01-26T01:55:51;101461.59;;;-1.26;100.00
63190;BME280;49286;44.460;26.114;2023-01-26T01:58:18;101572.03;;;-1.04;100.00
63190;BME280;49286;44.460;26.114;2023-01-26T02:00:44;101492.19;;;-1.31;100.00
63190;BME280;49286;44.460;26.114;2023-01-26T02:03:10;101465.25;;;-1.36;100.00
63190;BME280;49286;44.460;26.114;2023-01-26T02:08:37;101446.94;;;-1.40;100.00
63190;BME280;49286;44.460;26.114;2023-01-26T02:11:33;101556.38;;;-0.94;100.00
63190;BME280;49286;44.460;26.114;2023-01-26T02:14:06;101418.03;;;-1.63;100.00
63190;BME280;49286;44.460;26.114;2023-01-26T02:16:33;101544.88;;;-0.86;100.00
63190;BME280;49286;44.460;26.114;2023-01-26T02:18:59;101553.41;;;-0.87;100.00
63190;BME280;49286;44.460;26.114;2023-01-26T02:21:25;101489.91;;;-1.26;100.00
63190;BME280;49286;44.460;26.114;2023-01-26T02:26:24;101503.00;;;-1.10;100.00
63190;BME280;49286;44.460;26.114;2023-01-26T02:28:51;101470.88;;;-1.41;100.00
63190;BME280;49286;44.460;26.114;2023-01-26T02:31:17;101508.81;;;-0.99;100.00
63190;BME280;49286;44.460;26.114;2023-01-26T02:33:44;101483.97;;;-1.12;100.00
63190;BME280;49286;44.460;26.114;2023-01-26T02:36:23;101460.09;;;-1.22;100.00
63190;BME280;49286;44.460;26.114;2023-01-26T02:41:57;101489.81;;;-1.14;100.00
63190;BME280;49286;44.460;26.114;2023-01-26T02:44:42;101344.31;;;-1.89;100.00
63190;BME280;49286;44.460;26.114;2023-01-26T02:47:13;101368.56;;;-1.59;100.00
63190;BME280;49286;44.460;26.114;2023-01-26T02:49:39;101453.66;;;-1.16;100.00
63190;BME280;49286;44.460;26.114;2023-01-26T02:52:22;101349.34;;;-1.64;100.00
63190;BME280;49286;44.460;26.114;2023-01-26T02:54:50;101352.22;;;-1.73;100.00
63190;BME280;49286;44.460;26.114;2023-01-26T02:57:39;101351.94;;;-1.77;100.00
63190;BME280;49286;44.460;26.114;2023-01-26T03:00:11;101478.22;;;-1.08;100.00
63190;BME280;49286;44.460;26.114;2023-01-26T03:02:37;101453.75;;;-1.28;100.00
63190;BME280;49286;44.460;26.114;2023-01-26T03:05:03;101318.56;;;-2.02;100.00
63190;BME280;49286;44.460;26.114;2023-01-26T03:07:29;101451.66;;;-1.20;100.00
63190;BME280;49286;44.460;26.114;2023-01-26T03:09:55;101476.25;;;-0.98;100.00
63190;BME280;49286;44.460;26.114;2023-01-26T03:12:23;101449.41;;;-1.29;100.00
63190;BME280;49286;44.460;26.114;2023-01-26T03:14:48;101306.09;;;-1.83;100.00
63190;BME280;49286;44.460;26.114;2023-01-26T03:17:34;101433.75;;;-1.05;100.00
63190;BME280;49286;44.460;26.114;2023-01-26T03:19:59;101450.78;;;-1.07;100.00
63190;BME280;49286;44.460;26.114;2023-01-26T03:22:43;101467.94;;;-1.08;100.00
63190;BME280;49286;44.460;26.114;2023-01-26T03:25:28;101328.38;;;-1.83;100.00
63190;BME280;49286;44.460;26.114;2023-01-26T03:28:12;101446.91;;;-1.14;100.00
63190;BME280;49286;44.460;26.114;2023-01-26T03:30:38;101314.13;;;-1.92;100.00
63190;BME280;49286;44.460;26.114;2023-01-26T03:33:04;101321.44;;;-1.71;100.00
63190;BME280;49286;44.460;26.114;2023-01-26T03:35:29;101437.22;;;-1.04;100.00
63190;BME280;49286;44.460;26.114;2023-01-26T03:37:56;101386.13;;;-1.25;100.00
63190;BME280;49286;44.460;26.114;2023-01-26T03:40:22;101414.34;;;-1.13;100.00
63190;BME280;49286;44.460;26.114;2023-01-26T03:43:07;101395.84;;;-1.21;100.00
63190;BME280;49286;44.460;26.114;2023-01-26T03:45:52;101401.63;;;-1.10;100.00
63190;BME280;49286;44.460;26.114;2023-01-26T03:48:36;101288.59;;;-1.88;100.00
63190;BME280;49286;44.460;26.114;2023-01-26T03:51:20;101408.59;;;-1.22;100.00
63190;BME280;49286;44.460;26.114;2023-01-26T03:54:04;101406.59;;;-1.13;100.00
63190;BME280;49286;44.460;26.114;2023-01-26T03:56:49;101345.16;;;-1.35;100.00
63190;BME280;49286;44.460;26.114;2023-01-26T03:59:14;101225.59;;;-2.08;100.00
63190;BME280;49286;44.460;26.114;2023-01-26T04:01:49;101265.47;;;-1.88;100.00
63190;BME280;49286;44.460;26.114;2023-01-26T04:04:33;101376.50;;;-1.14;100.00
63190;BME280;49286;44.460;26.114;2023-01-26T04:07:17;101373.06;;;-1.28;100.00
63190;BME280;49286;44.460;26.114;2023-01-26T04:10:02;101253.88;;;-1.82;100.00
63190;BME280;49286;44.460;26.114;2023-01-26T04:12:27;101361.41;;;-1.08;100.00
63190;BME280;49286;44.460;26.114;2023-01-26T04:14:53;101350.25;;;-1.22;100.00
63190;BME280;49286;44.460;26.114;2023-01-26T04:17:37;101216.72;;;-2.00;100.00
63190;BME280;49286;44.460;26.114;2023-01-26T04:20:21;101298.94;;;-1.47;100.00
63190;BME280;49286;44.460;26.114;2023-01-26T04:23:05;101252.78;;;-1.72;100.00
63190;BME280;49286;44.460;26.114;2023-01-26T04:25:31;101198.31;;;-1.93;100.00
63190;BME280;49286;44.460;26.114;2023-01-26T04:27:56;101296.25;;;-1.35;100.00
63190;BME280;49286;44.460;26.114;2023-01-26T04:30:22;101254.41;;;-1.59;100.00
63190;BME280;49286;44.460;26.114;2023-01-26T04:32:49;101299.56;;;-1.23;100.00
63190;BME280;49286;44.460;26.114;2023-01-26T04:35:15;101091.22;;;-2.47;100.00
63190;BME280;49286;44.460;26.114;2023-01-26T04:37:40;101167.03;;;-1.99;100.00
63190;BME280;49286;44.460;26.114;2023-01-26T04:40:07;101331.03;;;-1.14;100.00
63190;BME280;49286;44.460;26.114;2023-01-26T04:42:32;101278.22;;;-1.35;100.00
63190;BME280;49286;44.460;26.114;2023-01-26T04:44:58;101310.63;;;-1.11;100.00
63190;BME280;49286;44.460;26.114;2023-01-26T04:47:23;101074.13;;;-2.47;100.00
63190;BME280;49286;44.460;26.114;2023-01-26T04:49:49;101302.53;;;-1.17;100.00
63190;BME280;49286;44.460;26.114;2023-01-26T04:52:14;101292.28;;;-1.30;100.00
63190;BME280;49286;44.460;26.114;2023-01-26T04:54:40;101272.69;;;-1.41;100.00
63190;BME280;49286;44.460;26.114;2023-01-26T04:57:07;101338.78;;;-1.14;100.00
63190;BME280;49286;44.460;26.114;2023-01-26T04:59:32;101295.41;;;-1.21;100.00
63190;BME280;49286;44.460;26.114;2023-01-26T05:01:58;101200.44;;;-1.73;100.00
63190;BME280;49286;44.460;26.114;2023-01-26T05:04:23;101309.31;;;-1.04;100.00
63190;BME280;49286;44.460;26.114;2023-01-26T05:06:49;101260.69;;;-1.28;100.00
63190;BME280;49286;44.460;26.114;2023-01-26T05:09:14;101271.16;;;-1.24;100.00
63190;BME280;49286;44.460;26.114;2023-01-26T05:11:40;101282.38;;;-1.24;100.00
63190;BME280;49286;44.460;26.114;2023-01-26T05:14:05;101258.97;;;-1.27;100.00
63190;BME280;49286;44.460;26.114;2023-01-26T05:16:31;101137.69;;;-1.89;100.00
63190;BME280;49286;44.460;26.114;2023-01-26T05:18:56;101159.41;;;-1.84;100.00
63190;BME280;49286;44.460;26.114;2023-01-26T05:21:22;101256.47;;;-1.40;100.00
63190;BME280;49286;44.460;26.114;2023-01-26T05:23:52;101290.72;;;-1.13;100.00
63190;BME280;49286;44.460;26.114;2023-01-26T05:26:18;101158.13;;;-1.91;100.00
63190;BME280;49286;44.460;26.114;2023-01-26T05:28:43;101284.44;;;-1.03;100.00
63190;BME280;49286;44.460;26.114;2023-01-26T05:31:09;101265.72;;;-1.29;100.00
63190;BME280;49286;44.460;26.114;2023-01-26T05:33:35;101295.81;;;-1.15;100.00
63190;BME280;49286;44.460;26.114;2023-01-26T05:36:03;101242.63;;;-1.42;100.00
63190;BME280;49286;44.460;26.114;2023-01-26T05:38:29;101275.41;;;-1.25;100.00
63190;BME280;49286;44.460;26.114;2023-01-26T05:40:55;101137.88;;;-2.00;100.00
63190;BME280;49286;44.460;26.114;2023-01-26T05:43:20;101177.34;;;-1.71;100.00
63190;BME280;49286;44.460;26.114;2023-01-26T05:45:46;101249.06;;;-1.21;100.00
63190;BME280;49286;44.460;26.114;2023-01-26T05:48:11;101242.13;;;-1.22;100.00
63190;BME280;49286;44.460;26.114;2023-01-26T05:50:37;101266.50;;;-1.17;100.00
63190;BME280;49286;44.460;26.114;2023-01-26T05:53:02;101164.75;;;-1.81;100.00
63190;BME280;49286;44.460;26.114;2023-01-26T05:55:28;101223.94;;;-1.53;100.00
63190;BME280;49286;44.460;26.114;2023-01-26T05:57:54;101255.34;;;-1.31;100.00
63190;BME280;49286;44.460;26.114;2023-01-26T06:00:19;101277.66;;;-1.16;100.00
63190;BME280;49286;44.460;26.114;2023-01-26T06:02:45;101287.84;;;-1.04;100.00
63190;BME280;49286;44.460;26.114;2023-01-26T06:05:13;101263.09;;;-1.16;100.00
63190;BME280;49286;44.460;26.114;2023-01-26T06:07:41;101271.56;;;-1.03;100.00
63190;BME280;49286;44.460;26.114;2023-01-26T06:10:07;101264.53;;;-1.06;100.00
63190;BME280;49286;44.460;26.114;2023-01-26T06:12:33;101127.88;;;-1.95;100.00
63190;BME280;49286;44.460;26.114;2023-01-26T06:15:01;101094.00;;;-2.03;100.00
63190;BME280;49286;44.460;26.114;2023-01-26T06:17:27;101131.88;;;-1.72;100.00
63190;BME280;49286;44.460;26.114;2023-01-26T06:19:53;101260.22;;;-1.07;100.00
63190;BME280;49286;44.460;26.114;2023-01-26T06:22:18;101274.56;;;-1.11;100.00
63190;BME280;49286;44.460;26.114;2023-01-26T06:24:44;101133.59;;;-1.86;100.00
63190;BME280;49286;44.460;26.114;2023-01-26T06:27:15;101122.81;;;-1.80;100.00
63190;BME280;49286;44.460;26.114;2023-01-26T06:29:41;101248.59;;;-1.00;100.00
63190;BME280;49286;44.460;26.114;2023-01-26T06:32:12;101203.47;;;-1.37;100.00
63190;BME280;49286;44.460;26.114;2023-01-26T06:34:37;101085.31;;;-1.90;100.00
63190;BME280;49286;44.460;26.114;2023-01-26T06:37:03;101139.47;;;-1.74;100.00
63190;BME280;49286;44.460;26.114;2023-01-26T06:39:29;101265.72;;;-1.01;100.00
63190;BME280;49286;44.460;26.114;2023-01-26T06:41:55;101274.19;;;-0.89;100.00
63190;BME280;49286;44.460;26.114;2023-01-26T06:44:20;101241.84;;;-0.98;100.00
63190;BME280;49286;44.460;26.114;2023-01-26T06:46:46;101263.19;;;-0.86;100.00
63190;BME280;49286;44.460;26.114;2023-01-26T06:49:11;101127.69;;;-1.70;100.00
63190;BME280;49286;44.460;26.114;2023-01-26T06:54:13;101246.03;;;-0.86;100.00
63190;BME280;49286;44.460;26.114;2023-01-26T06:56:39;101111.47;;;-1.69;100.00
63190;BME280;49286;44.460;26.114;2023-01-26T06:59:05;101268.75;;;-0.93;100.00
63190;BME280;49286;44.460;26.114;2023-01-26T07:01:36;101213.66;;;-1.10;100.00
63190;BME280;49286;44.460;26.114;2023-01-26T07:04:03;101244.66;;;-0.94;100.00
63190;BME280;49286;44.460;26.114;2023-01-26T07:06:29;101127.81;;;-1.68;100.00
63190;BME280;49286;44.460;26.114;2023-01-26T07:08:54;101094.03;;;-1.88;100.00
63190;BME280;49286;44.460;26.114;2023-01-26T07:11:19;101227.28;;;-0.98;100.00
63190;BME280;49286;44.460;26.114;2023-01-26T07:13:46;101244.44;;;-0.98;100.00
63190;BME280;49286;44.460;26.114;2023-01-26T07:16:13;101209.69;;;-1.05;100.00
63190;BME280;49286;44.460;26.114;2023-01-26T07:18:39;101200.81;;;-0.95;100.00
63190;BME280;49286;44.460;26.114;2023-01-26T07:21:10;101096.41;;;-1.48;100.00
63190;BME280;49286;44.460;26.114;2023-01-26T07:23:36;101082.81;;;-1.60;100.00
63190;BME280;49286;44.460;26.114;2023-01-26T07:26:02;101062.41;;;-1.72;100.00
63190;BME280;49286;44.460;26.114;2023-01-26T07:28:27;101131.78;;;-1.31;100.00
63190;BME280;49286;44.460;26.114;2023-01-26T07:30:58;101094.00;;;-1.60;100.00
63190;BME280;49286;44.460;26.114;2023-01-26T07:33:24;101183.56;;;-0.96;100.00
63190;BME280;49286;44.460;26.114;2023-01-26T07:35:52;101031.41;;;-1.88;100.00
63190;BME280;49286;44.460;26.114;2023-01-26T07:38:18;101162.69;;;-1.01;100.00
63190;BME280;49286;44.460;26.114;2023-01-26T07:40:44;101195.66;;;-0.95;100.00
63190;BME280;49286;44.460;26.114;2023-01-26T07:43:09;101069.09;;;-1.61;100.00
63190;BME280;49286;44.460;26.114;2023-01-26T07:45:35;101174.97;;;-0.82;100.00
63190;BME280;49286;44.460;26.114;2023-01-26T07:48:01;101158.69;;;-1.11;100.00
63190;BME280;49286;44.460;26.114;2023-01-26T07:50:27;101099.09;;;-1.46;100.00
63190;BME280;49286;44.460;26.114;2023-01-26T07:52:52;101071.38;;;-1.65;100.00
63190;BME280;49286;44.460;26.114;2023-01-26T07:55:18;101046.69;;;-1.77;100.00
63190;BME280;49286;44.460;26.114;2023-01-26T07:57:50;101057.53;;;-1.67;100.00
63190;BME280;49286;44.460;26.114;2023-01-26T08:00:16;101025.59;;;-1.71;100.00
63190;BME280;49286;44.460;26.114;2023-01-26T08:02:42;101107.72;;;-1.31;100.00
63190;BME280;49286;44.460;26.114;2023-01-26T08:05:08;101119.25;;;-1.24;100.00
63190;BME280;49286;44.460;26.114;2023-01-26T08:07:33;101148.16;;;-1.00;100.00
63190;BME280;49286;44.460;26.114;2023-01-26T08:09:59;101146.97;;;-1.06;100.00
63190;BME280;49286;44.460;26.114;2023-01-26T08:12:25;101149.91;;;-0.99;100.00
63190;BME280;49286;44.460;26.114;2023-01-26T08:14:50;101111.19;;;-1.16;100.00
63190;BME280;49286;44.460;26.114;2023-01-26T08:17:16;100942.56;;;-2.13;100.00
63190;BME280;49286;44.460;26.114;2023-01-26T08:19:44;101094.66;;;-1.34;100.00
63190;BME280;49286;44.460;26.114;2023-01-26T08:22:10;101107.44;;;-1.06;100.00
63190;BME280;49286;44.460;26.114;2023-01-26T08:24:36;101143.34;;;-0.94;100.00
63190;BME280;49286;44.460;26.114;2023-01-26T08:27:02;101118.03;;;-1.01;100.00
63190;BME280;49286;44.460;26.114;2023-01-26T08:29:27;100913.91;;;-2.04;100.00
63190;BME280;49286;44.460;26.114;2023-01-26T08:31:53;101124.84;;;-0.87;100.00
63190;BME280;49286;44.460;26.114;2023-01-26T08:34:18;101099.41;;;-1.12;100.00
63190;BME280;49286;44.460;26.114;2023-01-26T08:36:46;101104.00;;;-1.07;100.00
63190;BME280;49286;44.460;26.114;2023-01-26T08:39:11;100988.97;;;-1.67;100.00
63190;BME280;49286;44.460;26.114;2023-01-26T08:41:37;101119.63;;;-0.89;100.00
63190;BME280;49286;44.460;26.114;2023-01-26T08:44:03;101094.16;;;-1.14;100.00
63190;BME280;49286;44.460;26.114;2023-01-26T08:46:29;101085.53;;;-1.14;100.00
63190;BME280;49286;44.460;26.114;2023-01-26T08:48:54;100936.00;;;-1.93;100.00
63190;BME280;49286;44.460;26.114;2023-01-26T08:51:20;100981.50;;;-1.62;100.00
63190;BME280;49286;44.460;26.114;2023-01-26T08:53:46;101108.25;;;-0.92;100.00
63190;BME280;49286;44.460;26.114;2023-01-26T08:56:12;101059.66;;;-1.01;100.00
63190;BME280;49286;44.460;26.114;2023-01-26T08:58:38;101103.44;;;-0.71;100.00
63190;BME280;49286;44.460;26.114;2023-01-26T09:01:09;101103.91;;;-0.93;100.00
63190;BME280;49286;44.460;26.114;2023-01-26T09:03:35;101042.72;;;-1.27;100.00
63190;BME280;49286;44.460;26.114;2023-01-26T09:06:01;101081.19;;;-1.00;100.00
63190;BME280;49286;44.460;26.114;2023-01-26T09:08:28;101060.03;;;-0.95;100.00
63190;BME280;49286;44.460;26.114;2023-01-26T09:10:54;101094.31;;;-0.81;100.00
63190;BME280;49286;44.460;26.114;2023-01-26T09:13:20;101046.09;;;-0.98;100.00
63190;BME280;49286;44.460;26.114;2023-01-26T09:15:45;100963.41;;;-1.49;100.00
63190;BME280;49286;44.460;26.114;2023-01-26T09:18:11;101030.56;;;-1.00;100.00
63190;BME280;49286;44.460;26.114;2023-01-26T09:20:37;100902.81;;;-1.59;100.00
63190;BME280;49286;44.460;26.114;2023-01-26T09:23:03;100921.81;;;-1.57;100.00
63190;BME280;49286;44.460;26.114;2023-01-26T09:25:29;101031.84;;;-0.92;100.00
63190;BME280;49286;44.460;26.114;2023-01-26T09:27:54;100917.81;;;-1.52;100.00
63190;BME280;49286;44.460;26.114;2023-01-26T09:30:20;100880.91;;;-1.52;100.00
63190;BME280;49286;44.460;26.114;2023-01-26T09:32:46;100892.69;;;-1.56;100.00
63190;BME280;49286;44.460;26.114;2023-01-26T09:35:11;101006.03;;;-0.93;100.00
63190;BME280;49286;44.460;26.114;2023-01-26T09:37:37;101007.84;;;-0.76;100.00
63190;BME280;49286;44.460;26.114;2023-01-26T09:40:04;100949.13;;;-1.13;100.00
63190;BME280;49286;44.460;26.114;2023-01-26T09:45:45;100900.63;;;-1.36;100.00
63190;BME280;49286;44.460;26.114;2023-01-26T09:51:08;100902.13;;;-1.25;100.00
63190;BME280;49286;44.460;26.114;2023-01-26T09:56:42;100918.69;;;-1.05;100.00
63190;BME280;49286;44.460;26.114;2023-01-26T09:59:33;100958.97;;;-0.74;100.00
63190;BME280;49286;44.460;26.114;2023-01-26T10:04:51;100861.41;;;-1.32;100.00
63190;BME280;49286;44.460;26.114;2023-01-26T10:07:19;100903.00;;;-0.93;100.00
63190;BME280;49286;44.460;26.114;2023-01-26T10:09:48;100827.47;;;-1.25;100.00
63190;BME280;49286;44.460;26.114;2023-01-26T10:12:18;100948.22;;;-0.51;100.00
63190;BME280;49286;44.460;26.114;2023-01-26T10:14:50;100845.34;;;-1.12;100.00
63190;BME280;49286;44.460;26.114;2023-01-26T10:17:38;100978.28;;;-0.18;100.00
63190;BME280;49286;44.460;26.114;2023-01-26T10:20:27;100987.28;;;-0.10;100.00
63190;BME280;49286;44.460;26.114;2023-01-26T10:22:59;100836.59;;;-0.66;100.00
63190;BME280;49286;44.460;26.114;2023-01-26T10:25:35;100828.22;;;-0.78;100.00
63190;BME280;49286;44.460;26.114;2023-01-26T10:30:38;100854.59;;;-0.50;100.00
63190;BME280;49286;44.460;26.114;2023-01-26T10:35:39;100925.91;;;-0.50;100.00
63190;BME280;49286;44.460;26.114;2023-01-26T10:38:25;100973.84;;;-0.21;100.00
63190;BME280;49286;44.460;26.114;2023-01-26T10:40:51;100808.44;;;-0.96;100.00
63190;BME280;49286;44.460;26.114;2023-01-26T10:43:17;100850.28;;;-0.83;100.00
63190;BME280;49286;44.460;26.114;2023-01-26T10:45:45;100918.50;;;-0.28;100.00
63190;BME280;49286;44.460;26.114;2023-01-26T10:48:17;100939.88;;;-0.12;100.00
63190;BME280;49286;44.460;26.114;2023-01-26T10:50:45;100920.94;;;0.04;100.00
63190;BME280;49286;44.460;26.114;2023-01-26T10:53:22;100933.03;;;-0.12;100.00
63190;BME280;49286;44.460;26.114;2023-01-26T10:56:14;100931.38;;;-0.11;100.00
63190;BME280;49286;44.460;26.114;2023-01-26T10:58:54;100771.16;;;-1.02;100.00
63190;BME280;49286;44.460;26.114;2023-01-26T11:01:22;100788.59;;;-0.64;100.00
63190;BME280;49286;44.460;26.114;2023-01-26T11:04:04;100905.41;;;0.20;100.00
63190;BME280;49286;44.460;26.114;2023-01-26T11:06:30;100753.78;;;-0.90;100.00
63190;BME280;49286;44.460;26.114;2023-01-26T11:09:19;100910.63;;;-0.13;100.00
63190;BME280;49286;44.460;26.114;2023-01-26T11:12:16;100858.19;;;-0.13;100.00
63190;BME280;49286;44.460;26.114;2023-01-26T11:15:26;100887.75;;;-0.07;100.00
63190;BME280;49286;44.460;26.114;2023-01-26T11:17:59;100728.47;;;-0.81;100.00
63190;BME280;49286;44.460;26.114;2023-01-26T11:25:53;100881.63;;;-0.09;100.00
63190;BME280;49286;44.460;26.114;2023-01-26T11:33:44;100718.19;;;-0.81;100.00
63190;BME280;49286;44.460;26.114;2023-01-26T11:36:23;100846.84;;;0.01;100.00
63190;BME280;49286;44.460;26.114;2023-01-26T11:39:58;100842.81;;;0.06;100.00
63190;BME280;49286;44.460;26.114;2023-01-26T11:42:19;100851.78;;;-0.04;100.00
63190;BME280;49286;44.460;26.114;2023-01-26T11:48:05;100808.16;;;0.01;100.00
63190;BME280;49286;44.460;26.114;2023-01-26T12:01:59;100787.84;;;0.07;100.00
63190;BME280;49286;44.460;26.114;2023-01-26T12:04:27;100699.09;;;-0.32;100.00
63190;BME280;49286;44.460;26.114;2023-01-26T12:07:16;100655.78;;;-0.57;100.00
63190;BME280;49286;44.460;26.114;2023-01-26T12:09:48;100750.50;;;0.18;100.00
63190;BME280;49286;44.460;26.114;2023-01-26T12:12:42;100765.97;;;0.36;100.00
63190;BME280;49286;44.460;26.114;2023-01-26T12:15:18;100764.38;;;0.20;100.00
63190;BME280;49286;44.460;26.114;2023-01-26T12:23:03;100748.72;;;0.35;100.00
63190;BME280;49286;44.460;26.114;2023-01-26T12:25:58;100725.53;;;0.17;100.00
63190;BME280;49286;44.460;26.114;2023-01-26T12:28:29;100741.13;;;0.38;100.00
63190;BME280;49286;44.460;26.114;2023-01-26T12:33:32;100729.06;;;0.19;100.00
63190;BME280;49286;44.460;26.114;2023-01-26T12:36:25;100678.78;;;0.11;100.00
63190;BME280;49286;44.460;26.114;2023-01-26T12:52:32;100682.22;;;0.30;100.00
63190;BME280;49286;44.460;26.114;2023-01-26T12:57:43;100681.53;;;0.34;100.00
63190;BME280;49286;44.460;26.114;2023-01-26T13:00:22;100695.81;;;0.45;100.00
63190;BME280;49286;44.460;26.114;2023-01-26T13:02:52;100687.00;;;0.40;100.00
63190;BME280;49286;44.460;26.114;2023-01-26T13:05:34;100658.13;;;0.29;100.00
63190;BME280;49286;44.460;26.114;2023-01-26T13:10:54;100681.84;;;0.40;100.00
63190;BME280;49286;44.460;26.114;2023-01-26T13:15:44;100673.13;;;0.38;100.00
63190;BME280;49286;44.460;26.114;2023-01-26T13:18:16;100536.53;;;-0.35;100.00
63190;BME280;49286;44.460;26.114;2023-01-26T13:20:46;100531.44;;;-0.34;100.00
63190;BME280;49286;44.460;26.114;2023-01-26T13:23:43;100666.59;;;0.46;100.00
63190;BME280;49286;44.460;26.114;2023-01-26T13:28:34;100668.59;;;0.52;100.00
63190;BME280;49286;44.460;26.114;2023-01-26T13:31:04;100520.69;;;-0.25;100.00
63190;BME280;49286;44.460;26.114;2023-01-26T13:33:30;100621.53;;;0.38;100.00
63190;BME280;49286;44.460;26.114;2023-01-26T13:35:57;100617.31;;;0.40;100.00
63190;BME280;49286;44.460;26.114;2023-01-26T13:38:38;100655.94;;;0.58;100.00
63190;BME280;49286;44.460;26.114;2023-01-26T13:41:11;100647.94;;;0.52;100.00
63190;BME280;49286;44.460;26.114;2023-01-26T13:43:45;100607.78;;;0.39;100.00
63190;BME280;49286;44.460;26.114;2023-01-26T13:46:23;100626.19;;;0.47;100.00
63190;BME280;49286;44.460;26.114;2023-01-26T13:48:52;100641.13;;;0.54;100.00
63190;BME280;49286;44.460;26.114;2023-01-26T13:51:29;100626.66;;;0.57;100.00
63190;BME280;49286;44.460;26.114;2023-01-26T13:53:59;100601.88;;;0.41;100.00
63190;BME280;49286;44.460;26.114;2023-01-26T13:56:35;100628.50;;;0.60;100.00
63190;BME280;49286;44.460;26.114;2023-01-26T14:01:30;100465.91;;;-0.19;100.00
63190;BME280;49286;44.460;26.114;2023-01-26T14:04:06;100473.25;;;-0.09;100.00
63190;BME280;49286;44.460;26.114;2023-01-26T14:06:34;100430.44;;;-0.25;100.00
63190;BME280;49286;44.460;26.114;2023-01-26T14:09:02;100598.03;;;0.72;100.00
63190;BME280;49286;44.460;26.114;2023-01-26T14:11:30;100580.19;;;0.57;100.00
63190;BME280;49286;44.460;26.114;2023-01-26T14:13:58;100576.09;;;0.62;100.00